Latest Weather Observations for Port Pirie Airport AWS***

IDS60801

Issued at 2:05 pm CDT Wednesday 26 November 2014 (issued every 30 minutes, with the page automatically refreshed every 10 minutes)

About weather observations | Map of weather stations | Latest weather observations for SA | Other Formats
Station Details ID: 250006 Name: PORT PIRIE AERODROME AWS Lat: -33.23 Lon: 138.00 Height: 10.0 m
Data from the previous 72 hours. | See also: Recent months for locations in South Australia
Date/Time
CDT
Temp
°C
App
Temp
°C
Dew
Point
Rel
Hum
%
Delta-T
°C
Wind Press
QNH
hPa
Press
MSL
hPa
Rain
since 9 am
mm
Dir
 
Spd
km/h
Gust
km/h
Spd
kts
Gust
kts
26/02:00pm 26.6 22.1 6.1 27 10.7 SW 19 28 10 15 - - 0.0
26/01:30pm 25.9 22.2 6.5 29 10.1 WSW 15 26 8 14 - - 0.0
26/01:00pm 25.4 22.1 4.5 26 10.5 SW 11 28 6 15 - - 0.0
26/12:30pm 25.0 22.4 4.2 26 10.3 SSW 7 19 4 10 - - 0.0
26/12:00pm 24.3 21.1 5.1 29 9.7 SSW 11 19 6 10 - - 0.0
26/11:30am 23.2 20.0 5.1 31 9.0 S 11 22 6 12 - - 0.0
26/11:00am 22.6 18.7 5.5 33 8.6 S 15 26 8 14 - - 0.0
26/10:30am 22.1 18.2 5.5 34 8.3 S 15 24 8 13 - - 0.0
26/10:00am 20.8 17.0 5.6 37 7.5 S 15 22 8 12 - - 0.0
26/09:30am 21.1 17.4 6.2 38 7.5 SSE 15 20 8 11 - - 0.0
26/09:00am 19.8 15.9 6.9 43 6.5 SSE 17 24 9 13 - - 0.0
26/08:30am 17.8 13.5 7.2 50 5.3 SSE 19 24 10 13 - - 0.0
26/08:00am 16.0 12.0 6.7 54 4.6 S 17 22 9 12 - - 0.0
26/07:30am 14.3 10.6 6.2 58 3.9 SSE 15 20 8 11 - - 0.0
26/07:00am 12.1 7.9 5.5 64 3.1 S 17 20 9 11 - - 0.0
26/06:30am 10.7 7.2 5.3 69 2.5 SSE 13 19 7 10 - - 0.0
26/06:00am 10.4 6.5 5.2 70 2.4 SSE 15 20 8 11 - - 0.0
26/05:30am 10.8 6.8 5.1 68 2.6 SSE 15 19 8 10 - - 0.0
26/05:00am 10.9 7.3 5.2 68 2.6 SSE 13 20 7 11 - - 0.0
26/04:30am 10.6 7.0 5.2 69 2.5 SSE 13 19 7 10 - - 0.0
26/04:00am 10.0 6.7 4.6 69 2.4 S 11 17 6 9 - - 0.0
26/03:30am 10.0 6.7 4.6 69 2.4 S 11 13 6 7 - - 0.0
26/03:00am 10.5 7.6 4.9 68 2.5 S 9 13 5 7 - - 0.0
26/02:30am 11.1 7.9 5.0 66 2.8 S 11 15 6 8 - - 0.0
26/02:00am 11.1 8.2 4.8 65 2.9 S 9 13 5 7 - - 0.0
26/01:30am 10.7 8.1 4.4 65 2.8 S 7 9 4 5 - - 0.0
26/01:00am 11.8 9.3 4.5 61 3.3 S 7 11 4 6 - - 0.0
26/12:30am 12.8 10.0 5.2 60 3.5 SSE 9 13 5 7 - - 0.0
26/12:00am 12.5 10.0 4.7 59 3.6 SSE 7 9 4 5 - - 0.0
 
Date/Time
CDT
Temp
°C
App
Temp
°C
Dew
Point
Rel
Hum
%
Delta-T
°C
Wind Press
QNH
hPa
Press
MSL
hPa
Rain
since 9 am
mm
Dir
 
Spd
km/h
Gust
km/h
Spd
kts
Gust
kts
25/11:30pm 13.1 10.6 4.5 56 3.9 SSE 7 9 4 5 - - 0.0
25/11:00pm 13.9 11.1 5.0 55 4.1 S 9 13 5 7 - - 0.0
25/10:30pm 14.5 12.0 5.0 53 4.4 S 7 11 4 6 - - 0.0
25/10:00pm 16.1 13.0 5.7 50 5.0 SSE 11 17 6 9 - - 0.0
25/09:30pm 17.1 13.7 6.0 48 5.4 S 13 17 7 9 - - 0.0
25/09:00pm 18.1 13.6 6.3 46 5.8 S 19 22 10 12 - - 0.0
25/08:30pm 19.2 14.6 6.3 43 6.4 S 20 30 11 16 - - 0.0
25/08:00pm 19.7 15.4 7.1 44 6.4 SSW 19 28 10 15 - - 0.0
25/07:30pm 20.4 13.6 6.7 41 6.9 SW 32 43 17 23 - - 0.0
25/07:00pm 21.1 14.5 6.2 38 7.5 SW 30 43 16 23 - - 0.0
25/06:30pm 21.8 15.2 6.1 36 7.9 SW 30 41 16 22 - - 0.0
25/06:00pm 21.8 14.6 6.1 36 7.9 SW 33 41 18 22 - - 0.0
25/05:30pm 21.8 15.0 6.9 38 7.6 SW 32 44 17 24 - - 0.0
25/05:00pm 22.7 16.1 7.7 38 7.8 SW 32 43 17 23 - - 0.0
25/04:37pm 22.4 16.3 8.1 40 7.5 SW 30 48 16 26 - - 0.0
25/04:30pm 22.2 15.7 8.0 40 7.4 SW 32 44 17 24 - - 0.0
25/04:00pm 22.4 16.6 7.8 39 7.6 SW 28 43 15 23 - - 0.0
25/03:30pm 22.7 17.3 8.0 39 7.7 SW 26 37 14 20 - - 0.0
25/03:00pm 22.6 17.0 7.2 37 8.0 SW 26 37 14 20 - - 0.0
25/02:30pm 22.9 18.3 6.6 35 8.4 SW 20 33 11 18 - - 0.0
25/02:00pm 22.8 17.8 6.6 35 8.3 SW 22 39 12 21 - - 0.0
25/01:30pm 21.9 17.0 5.3 34 8.2 SW 20 33 11 18 - - 0.0
25/01:00pm 22.2 17.3 5.2 33 8.4 SSW 20 37 11 20 - - 0.0
25/12:30pm 22.9 19.7 4.9 31 8.9 SSE 11 20 6 11 - - 0.0
25/12:00pm 22.1 19.1 4.2 31 8.7 SE 9 19 5 10 - - 0.0
25/11:30am 21.0 17.3 4.6 34 8.0 SSE 13 24 7 13 - - 0.0
25/11:00am 21.0 16.8 5.8 37 7.6 S 17 28 9 15 - - 0.0
25/10:30am 19.5 15.3 5.9 41 6.7 SSW 17 28 9 15 - - 0.0
25/10:00am 18.9 15.6 6.4 44 6.2 SSE 13 22 7 12 - - 0.0
25/09:30am 18.8 15.9 6.6 45 6.1 SE 11 19 6 10 - - 0.0
25/09:00am 18.0 14.3 6.5 47 5.7 SE 15 26 8 14 - - 0.0
25/08:30am 17.1 13.1 6.6 50 5.2 SE 17 22 9 12 - - 0.0
25/08:00am 16.0 13.1 6.7 54 4.6 ESE 11 15 6 8 - - 0.0
25/07:30am 14.2 12.1 6.6 60 3.7 ESE 7 11 4 6 - - 0.0
25/07:00am 11.1 9.1 6.3 72 2.2 SE 6 7 3 4 - - 0.0
25/06:30am 7.4 4.9 3.8 78 1.5 ESE 6 6 3 3 - - 0.0
25/06:00am 7.0 4.8 3.3 77 1.6 SSE 4 6 2 3 - - 0.0
25/05:30am 7.2 4.6 3.1 75 1.7 SSE 6 7 3 4 - - 0.0
25/05:00am 8.3 5.6 3.8 73 1.9 S 7 9 4 5 - - 0.0
25/04:30am 8.5 6.0 3.8 72 2.0 SSE 6 7 3 4 - - 0.0
25/04:00am 8.9 6.5 4.1 72 2.1 SE 6 7 3 4 - - 0.0
25/03:30am 8.6 6.0 4.0 73 2.0 SE 7 9 4 5 - - 0.0
25/03:00am 8.8 6.2 4.2 73 2.0 SE 7 9 4 5 - - 0.0
25/02:30am 9.5 6.9 4.1 69 2.4 SSE 7 9 4 5 - - 0.0
25/02:00am 9.9 7.4 4.5 69 2.4 SSE 7 9 4 5 - - 0.0
25/01:30am 11.0 8.1 4.9 66 2.8 SSE 9 13 5 7 - - 0.0
25/01:00am 12.5 9.1 5.7 63 3.2 SSE 13 19 7 10 - - 0.0
25/12:30am 13.6 9.8 5.7 59 3.7 S 15 20 8 11 - - 0.0
25/12:00am 14.3 9.6 6.2 58 3.9 S 20 28 11 15 - - 0.0
 
Date/Time
CDT
Temp
°C
App
Temp
°C
Dew
Point
Rel
Hum
%
Delta-T
°C
Wind Press
QNH
hPa
Press
MSL
hPa
Rain
since 9 am
mm
Dir
 
Spd
km/h
Gust
km/h
Spd
kts
Gust
kts
24/11:30pm 14.7 8.9 6.3 57 4.0 SSW 26 32 14 17 - - 0.0
24/11:00pm 15.0 9.5 6.0 55 4.3 SSW 24 32 13 17 - - 0.0
24/10:30pm 15.3 10.3 6.6 56 4.2 S 22 30 12 16 - - 0.0
24/10:00pm 15.9 10.6 6.9 55 4.4 S 24 33 13 18 - - 0.0
24/09:30pm 16.1 11.1 6.3 52 4.8 S 22 32 12 17 - - 0.0
24/09:00pm 16.3 11.5 4.7 46 5.5 SSW 19 26 10 14 - - 0.0
24/08:30pm 17.3 11.5 4.3 42 6.1 SSW 24 33 13 18 - - 0.0
24/08:00pm 18.3 11.3 4.1 39 6.7 SSW 30 39 16 21 - - 0.0
24/07:30pm 19.4 11.1 4.0 36 7.3 SSW 37 46 20 25 - - 0.0
24/07:00pm 20.6 12.6 3.8 33 8.0 SSW 35 48 19 26 - - 0.0
24/06:30pm 21.4 12.4 2.6 29 8.8 SSW 39 52 21 28 - - 0.0
24/06:00pm 21.5 13.6 4.6 33 8.3 SSW 35 46 19 25 - - 0.0
24/05:30pm 22.2 14.5 7.2 38 7.7 SSW 37 50 20 27 - - 0.0
24/05:02pm 22.2 14.1 6.8 37 7.9 SW 39 57 21 31 - - 0.0
24/05:00pm 21.9 13.9 7.3 39 7.5 SW 39 52 21 28 - - 0.0
24/04:30pm 22.3 15.5 7.7 39 7.6 SSW 33 46 18 25 - - 0.0
24/04:00pm 23.6 16.9 9.6 41 7.6 SSW 35 46 19 25 - - 0.0
24/03:30pm 23.1 16.9 10.2 44 7.1 SW 33 46 18 25 - - 0.0
24/03:00pm 23.1 16.8 9.1 41 7.5 SW 32 44 17 24 - - 0.0
24/02:41pm 23.8 18.0 10.8 44 7.2 SW 32 50 17 27 - - 0.0
24/02:30pm 23.6 17.5 10.6 44 7.2 SW 33 44 18 24 - - 0.0
24/02:00pm 24.7 19.2 12.0 45 7.2 SW 32 43 17 23 - - 0.0
24/01:30pm 23.3 18.0 11.4 47 6.7 SW 30 43 16 23 - - 0.0
24/01:00pm 23.2 18.5 13.1 53 5.8 SW 30 43 16 23 - - 0.0
24/12:42pm 23.4 18.3 11.8 48 6.5 SW 30 50 16 27 - - 0.0
24/12:30pm 22.4 18.0 11.8 51 6.0 WSW 26 43 14 23 - - 0.0
24/12:00pm 21.8 16.7 11.8 53 5.6 SW 30 44 16 24 - - 0.0
24/11:30am 22.7 18.3 11.7 49 6.2 SW 26 41 14 22 - - 0.0
24/11:00am 23.0 18.9 11.4 48 6.5 SW 24 35 13 19 - - 0.0
24/10:30am 23.5 18.9 10.9 45 7.0 SSW 26 37 14 20 - - 0.0
24/10:00am 22.7 17.5 10.2 45 6.8 SSW 28 39 15 21 - - 0.0
24/09:30am 21.5 16.6 11.2 52 5.7 SSW 28 35 15 19 - - 0.0
24/09:00am 20.1 15.5 11.1 56 4.9 SSW 26 33 14 18 - - 0.0
24/08:30am 19.9 15.9 10.3 54 5.2 SSW 22 32 12 17 - - 0.0
24/08:00am 19.2 15.5 11.5 61 4.2 S 22 28 12 15 - - 0.0
24/07:30am 19.0 16.0 12.0 64 3.9 SSW 19 24 10 13 - - 0.0
24/07:00am 18.3 15.4 12.3 68 3.3 SSW 19 30 10 16 - - 0.0
24/06:30am 18.8 15.2 13.2 70 3.2 SW 24 37 13 20 - - 0.0
24/06:00am 18.9 16.2 12.9 68 3.4 SW 19 33 10 18 - - 0.0
24/05:30am 19.1 17.0 14.8 76 2.5 SW 19 28 10 15 - - 0.0
24/05:00am 19.3 18.2 15.2 77 2.4 WSW 15 26 8 14 - - 0.0
24/04:30am 19.6 18.3 14.8 74 2.8 SW 15 24 8 13 - - 0.0
24/04:00am 20.0 18.6 14.4 70 3.3 WSW 15 24 8 13 - - 0.0
24/03:30am 19.7 20.5 15.8 78 2.3 W 6 13 3 7 - - 0.0
24/03:00am 19.9 21.0 15.5 76 2.6 N 4 6 2 3 - - 0.0
24/02:30am 20.4 21.3 15.2 72 3.1 NW 4 7 2 4 - - 0.0
24/02:00am 21.3 22.8 15.6 70 3.4 WSW 2 4 1 2 - - 0.0
24/01:30am 21.4 22.9 15.7 70 3.4 W 2 4 1 2 - - 0.0
24/01:00am 21.5 22.2 14.6 65 4.1 S 4 6 2 3 - - 0.0
24/12:30am 21.5 23.1 16.0 71 3.3 SE 2 6 1 3 - - 0.0
24/12:00am 22.0 23.7 16.3 70 3.5 NW 2 4 1 2 - - 0.0
 
Date/Time
CDT
Temp
°C
App
Temp
°C
Dew
Point
Rel
Hum
%
Delta-T
°C
Wind Press
QNH
hPa
Press
MSL
hPa
Rain
since 9 am
mm
Dir
 
Spd
km/h
Gust
km/h
Spd
kts
Gust
kts
23/11:30pm 22.4 24.3 16.7 70 3.5 W 2 6 1 3 - - 0.0
23/11:00pm 22.6 23.8 16.9 70 3.5 NNW 6 9 3 5 - - 0.0
23/10:30pm 21.9 22.7 14.8 64 4.2 NW 4 9 2 5 - - 0.0
23/10:00pm 23.4 22.9 12.1 49 6.4 WNW 6 9 3 5 - - 0.0
23/09:30pm 23.1 22.4 11.5 48 6.5 N 6 15 3 8 - - 0.0
23/09:00pm 25.0 24.8 10.5 40 8.1 WNW 2 4 1 2 - - 0.0
23/08:30pm 26.5 25.5 10.2 36 9.1 WSW 6 7 3 4 - - 0.0
23/08:00pm 29.3 28.3 10.4 31 10.7 SW 6 9 3 5 - - 0.0
23/07:30pm 30.6 29.7 10.5 29 11.5 SW 6 11 3 6 - - 0.0
23/07:00pm 31.2 29.9 11.1 29 11.6 S 9 13 5 7 - - 0.0
23/06:30pm 31.5 29.7 10.8 28 11.9 S 11 17 6 9 - - 0.0
23/06:00pm 30.9 29.2 11.3 30 11.4 S 11 19 6 10 - - 0.0
23/05:30pm 30.7 28.7 11.6 31 11.1 S 13 20 7 11 - - 0.0
23/05:00pm 29.1 26.8 11.6 33 10.1 SSW 15 22 8 12 - - 0.0
23/04:30pm 27.9 25.6 11.9 37 9.2 SW 15 28 8 15 - - 0.0
23/04:00pm 26.3 25.8 12.0 41 8.2 SSW 6 13 3 7 - - 0.0
23/03:30pm 26.3 26.5 13.1 44 7.7 NW 4 - 2 - - - -
23/03:00pm 25.9 24.4 12.0 42 8.0 NNE 11 17 6 9 - - 0.0
23/02:30pm 26.3 24.1 13.4 45 7.6 NNW 17 24 9 13 - - 0.0

Other Formats:

Comma delimited format used in spreadsheet applications
http://www.bom.gov.au/fwo/IDS60801/IDS60801.99001.axf

JavaScript Object Notation format (JSON) in row-major order
http://www.bom.gov.au/fwo/IDS60801/IDS60801.99001.json